Ireland METAR reports

 

EIDW - Dublin Airport, Ireland
Distance from station: WNW 13km
Updated: 18/10/2018 05:30
Few Clouds
Few Clouds
 Wind from W
Wind: W 7 km/h
Temperature: 1°C
Wind Chill: -2°C
Dew Point: 1°C
Humidity: 100%
Barometer: 1029 hPa
Clouds: Few Clouds
Visibility: 10 km
Cloud details: Few Clouds 610 m
2018/10/18 04:30 EIDW 180430Z 26004KT 9999 FEW020 01/01 Q1029 NOSIG
EIME - Casement (mil), Ireland
Distance from station: WSW 26km
Updated: 18/10/2018 05:00
Clear
Clear
 Wind from S
Wind: S 9 km/h
Temperature: 1°C
Wind Chill: -2°C
Dew Point: 0°C
Humidity: 93%
Barometer: 1028 hPa
Summary: Clear
Visibility: greater than 10 km
2018/10/18 04:00 EIME 180400Z 19005KT CAVOK 01/00 Q1028
EGAC - Belfast Harbour, United Kingdom
Distance from station: N 140km
Updated: 18/10/2018 05:50
Clear
Clear
 Wind from S
Wind: S 7 km/h
Temperature: 5°C
Wind Chill: 3°C
Dew Point: 4°C
Humidity: 93%
Barometer: 1029 hPa
Clouds: Clear
Visibility: 10 km
2018/10/18 04:50 EGAC 180450Z AUTO 18004KT 9999 NCD 05/04 Q1029
 
EGAA - Belfast/Aldergro, United Kingdom
Distance from station: N 141km
Updated: 18/10/2018 05:50
Partly cloudy
Partly cloudy
 Wind from SE
Wind: SE 6 km/h
Temperature: 0°C
Dew Point: 0°C
Humidity: 100%
Barometer: 1029 hPa
Clouds: Partly cloudy
Visibility: 8 km
2018/10/18 04:50 EGAA 180450Z 14003KT 8000 NSC 00/00 Q1029
EIWF - Waterford Arpt, Ireland
Distance from station: SSW 148km
Updated: 17/10/2018 20:30
NOT Current
Clear
Clear
 Wind from NNE
Wind: NNE 6 km/h
Temperature: 6°C
Dew Point: 4°C
Humidity: 87%
Barometer: 1026 hPa
Summary: Clear
Visibility: greater than 10 km
2018/10/17 19:30 EIWF 171930Z 03003KT CAVOK 06/04 Q1026
EIKN - Connaught Apt, Ireland
Distance from station: WNW 191km
Updated: 17/10/2018 19:00
NOT Current
Few Clouds
Few Clouds
 Wind from WNW
Wind: WNW 6 km/h
Temperature: 8°C
Dew Point: 6°C
Humidity: 87%
Barometer: 1026 hPa
Clouds: Few Clouds
Visibility: 10 km
Cloud details: Few Clouds 488 m
2018/10/17 18:00 EIKN 171800Z 30003KT 9999 FEW016 08/06 Q1026 NOSIG
 
EISG - Sligo Arpt, Ireland
Distance from station: WNW 195km
Updated: 17/10/2018 19:00
NOT Current
Clear
Clear
 Wind from W
Wind: W 13 km/h
Temperature: 10°C
Wind Chill: 8°C
Dew Point: 6°C
Humidity: 76%
Barometer: 1025 hPa
Summary: Clear
Visibility: greater than 10 km
2018/10/17 18:00 EISG 171800Z 28007KT CAVOK 10/06 Q1025
EGAE - Eglinton/Londond, United Kingdom
Distance from station: NNW 198km
Updated: 18/10/2018 05:50
Few Clouds
Few Clouds
 Wind from SSW
Wind: SSW 4 km/h
Temperature: 4°C
Dew Point: 3°C
Humidity: 93%
Barometer: 1028 hPa
Clouds: Few Clouds
Visibility: 10 km
Cloud details: Few Clouds 488 m
2018/10/18 04:50 EGAE 180450Z 21002KT 9999 FEW016 04/03 Q1028
EINN - Shannon Airport, Ireland
Distance from station: WSW 204km
Updated: 18/10/2018 05:30
Fog, Mostly cloudy
Fog, Mostly cloudy
 Wind from ESE
Wind: ESE 4 km/h
Temperature: 2°C
Dew Point: 2°C
Humidity: 100%
Barometer: 1029 hPa
Summary: Fog
Clouds: Mostly cloudy
Visibility: 0 km
Cloud details: Few Clouds 30 m
Mostly cloudy 61 m
2018/10/18 04:30 EINN 180430Z 11002KT 0300 R24/0650D R06/0600D FG FEW001 BKN002 02/02 Q1029 TEMPO BKN001
 
EICK - Cork Arpt/Corcai, Ireland
Distance from station: SW 234km
Updated: 18/10/2018 05:30
Clear
Clear
 Wind from NNW
Wind: NNW 13 km/h
Temperature: 5°C
Wind Chill: 2°C
Dew Point: 3°C
Humidity: 87%
Barometer: 1028 hPa
Summary: Clear
Visibility: greater than 10 km
2018/10/18 04:30 EICK 180430Z 33007KT CAVOK 05/03 Q1028 NOSIG